Time;durP1;ratioP1;P1;durP2;ratioP2;P2;SDS_P1;SDS_P2;PMS_P1;PMS_P2;Temp;Humidity;BMP_temperature;BMP_pressure;BME280_temperature;BME280_humidity;BME280_pressure;Samples;Min_cycle;Max_cycle;Signal;HPM_P1;HPM_P2
2020/12/04 00:02:31;;;;;;;54.03;16.70;;;;;;;2.90;92.15;98085.94;4935471;28;20042;-84
2020/12/04 00:05:36;;;;;;;37.07;16.83;;;;;;;2.74;93.78;98091.81;4935053;28;20482;-83
2020/12/04 00:08:41;;;;;;;47.63;17.60;;;;;;;2.76;94.60;98081.16;4940333;28;20053;-83
2020/12/04 00:11:46;;;;;;;43.63;18.80;;;;;;;2.73;93.01;98079.63;4947792;28;20509;-84
2020/12/04 00:14:51;;;;;;;38.17;17.63;;;;;;;2.67;93.96;98063.63;4947419;28;20046;-83
2020/12/04 00:17:56;;;;;;;68.70;19.17;;;;;;;2.60;93.38;98059.94;4947567;28;20050;-84
2020/12/04 00:21:02;;;;;;;51.63;18.57;;;;;;;2.51;93.91;98053.72;4924492;28;20054;-83
2020/12/04 00:24:07;;;;;;;46.63;16.57;;;;;;;2.60;94.81;98039.69;4935403;28;20051;-84
2020/12/04 00:27:12;;;;;;;47.90;19.63;;;;;;;2.58;94.39;98025.88;4961779;28;20055;-83
2020/12/04 00:30:18;;;;;;;41.97;20.87;;;;;;;2.62;94.31;98029.84;4935167;28;20070;-83
2020/12/04 00:33:22;;;;;;;52.03;19.60;;;;;;;2.33;93.64;98024.75;4934456;28;20066;-83
2020/12/04 00:36:29;;;;;;;39.97;18.30;;;;;;;2.33;94.41;98024.75;4939956;28;20046;-83
2020/12/04 00:39:33;;;;;;;44.13;18.17;;;;;;;2.35;93.85;98040.41;4935969;28;20457;-83
2020/12/04 00:42:37;;;;;;;37.77;18.03;;;;;;;2.26;94.48;98022.84;4934985;28;20059;-83
2020/12/04 00:45:42;;;;;;;47.30;19.20;;;;;;;2.35;95.20;98022.81;4946491;28;20050;-83
2020/12/04 00:48:47;;;;;;;40.57;18.17;;;;;;;2.42;94.90;98015.16;4924022;28;20076;-83
2020/12/04 00:51:55;;;;;;;38.33;17.93;;;;;;;2.26;94.61;98014.94;4945849;28;20506;-83
2020/12/04 00:55:04;;;;;;;49.50;17.97;;;;;;;2.55;95.48;98013.00;4940106;28;20052;-84
2020/12/04 00:58:18;;;;;;;36.30;16.03;;;;;;;2.30;94.72;98024.22;4947672;28;20043;-84
2020/12/04 01:01:26;;;;;;;34.47;16.20;;;;;;;2.28;94.58;98028.78;4923011;28;20065;-83
2020/12/04 01:04:31;;;;;;;27.53;14.70;;;;;;;2.17;94.87;98043.78;4950273;28;20066;-83
2020/12/04 01:07:37;;;;;;;20.93;12.07;;;;;;;2.09;94.82;98038.44;4946217;28;20055;-83
2020/12/04 01:10:42;;;;;;;19.83;11.63;;;;;;;2.12;94.63;98026.81;4939125;28;20053;-83
2020/12/04 01:13:47;;;;;;;18.37;11.20;;;;;;;2.29;95.98;98025.19;4934740;28;20058;-83
2020/12/04 01:16:51;;;;;;;16.53;10.47;;;;;;;2.14;93.95;98036.19;4934191;28;20055;-84
2020/12/04 01:19:55;;;;;;;20.40;10.80;;;;;;;2.26;94.38;98028.94;4934365;28;20058;-83
2020/12/04 01:23:02;;;;;;;32.93;15.77;;;;;;;2.21;94.31;98018.03;4934867;28;20042;-84
2020/12/04 01:26:10;;;;;;;38.37;16.97;;;;;;;2.14;94.27;98019.56;4934183;28;20501;-83
2020/12/04 01:29:15;;;;;;;32.17;16.60;;;;;;;2.01;94.01;98025.16;4934149;28;20046;-84
2020/12/04 01:32:20;;;;;;;32.57;17.00;;;;;;;2.08;94.63;98034.13;4934347;28;20051;-83
2020/12/04 01:35:25;;;;;;;40.60;18.93;;;;;;;1.69;95.27;98024.69;4934271;28;20046;-83
2020/12/04 01:38:30;;;;;;;51.27;21.93;;;;;;;1.92;96.44;98015.50;4934391;28;20046;-82
2020/12/04 01:41:37;;;;;;;46.27;20.83;;;;;;;1.85;95.89;98018.88;4933426;28;20117;-83
2020/12/04 01:44:43;;;;;;;48.27;20.33;;;;;;;1.41;97.77;98029.88;4939045;28;20054;-83
2020/12/04 01:47:47;;;;;;;51.80;22.23;;;;;;;1.73;98.13;98026.09;4938603;28;20039;-82
2020/12/04 01:50:54;;;;;;;51.27;22.67;;;;;;;2.00;97.45;98034.03;4933341;28;20061;-83
2020/12/04 01:54:00;;;;;;;58.93;24.40;;;;;;;1.85;97.78;98019.69;4911627;28;20058;-83
2020/12/04 01:57:08;;;;;;;58.73;23.87;;;;;;;1.82;97.52;98019.97;4933509;28;20406;-84
2020/12/04 02:00:16;;;;;;;70.47;26.80;;;;;;;2.21;99.14;98015.41;4932781;28;20051;-84
2020/12/04 02:03:23;;;;;;;64.27;26.40;;;;;;;1.67;98.58;98006.44;4944989;28;20058;-84
2020/12/04 02:06:38;;;;;;;66.83;24.93;;;;;;;2.12;98.44;97997.88;4949465;28;20055;-82
2020/12/04 02:09:53;;;;;;;71.03;26.73;;;;;;;2.12;98.34;97996.03;4938216;28;20053;-84
2020/12/04 02:13:00;;;;;;;65.20;25.67;;;;;;;2.19;97.65;97991.06;4945421;28;20057;-83
2020/12/04 02:16:06;;;;;;;70.07;26.23;;;;;;;2.23;97.22;97999.50;4933599;28;20058;-83
2020/12/04 02:19:15;;;;;;;70.40;27.33;;;;;;;1.78;98.57;97979.19;4911460;28;20065;-83
2020/12/04 02:22:23;;;;;;;76.07;26.97;;;;;;;1.73;99.75;97976.16;4944888;28;20382;-84
2020/12/04 02:25:30;;;;;;;68.03;25.67;;;;;;;1.79;99.54;97978.19;4933701;28;20054;-83
2020/12/04 02:28:39;;;;;;;58.50;23.83;;;;;;;1.96;99.44;97972.19;4932991;28;20494;-83
2020/12/04 02:31:45;;;;;;;61.53;24.93;;;;;;;1.83;99.71;97969.06;4910499;28;20084;-83
2020/12/04 02:34:51;;;;;;;80.77;28.33;;;;;;;1.85;100.00;97963.69;4933314;28;20047;-83
2020/12/04 02:37:58;;;;;;;58.43;22.87;;;;;;;1.79;100.00;97963.28;4933125;28;20055;-84
2020/12/04 02:41:08;;;;;;;70.90;24.73;;;;;;;1.90;100.00;97966.69;4938153;28;20054;-83
2020/12/04 02:44:14;;;;;;;74.97;26.87;;;;;;;1.80;100.00;97953.59;4945174;28;20073;-83
2020/12/04 02:47:19;;;;;;;75.27;26.40;;;;;;;1.99;100.00;97948.25;4921023;28;20062;-83
2020/12/04 02:50:24;;;;;;;58.83;23.20;;;;;;;2.02;100.00;97937.44;4944172;28;20054;-83
2020/12/04 02:53:29;;;;;;;63.63;23.97;;;;;;;1.94;100.00;97936.53;4944285;28;20054;-83
2020/12/04 02:56:36;;;;;;;57.20;24.57;;;;;;;1.81;99.84;97935.06;4922084;28;20058;-83
2020/12/04 02:59:42;;;;;;;80.00;28.00;;;;;;;1.89;100.00;97931.69;4944312;28;20051;-83
2020/12/04 03:02:48;;;;;;;52.20;22.40;;;;;;;2.16;100.00;97926.44;4932093;28;20490;-83
2020/12/04 03:05:54;;;;;;;77.27;29.10;;;;;;;2.12;99.45;97916.38;4943694;28;20054;-84
2020/12/04 03:08:59;;;;;;;67.93;25.87;;;;;;;2.89;100.00;97921.88;4932900;28;20061;-85
2020/12/04 03:12:03;;;;;;;70.57;26.87;;;;;;;2.63;97.02;97912.28;4931868;28;20573;-83
2020/12/04 03:15:11;;;;;;;66.67;26.47;;;;;;;2.83;96.86;97901.41;4931924;28;20418;-84
2020/12/04 03:18:18;;;;;;;59.73;24.30;;;;;;;2.77;96.88;97906.47;4933140;28;20061;-83
2020/12/04 03:21:24;;;;;;;55.10;23.93;;;;;;;2.77;96.35;97911.75;4933139;28;20046;-84
2020/12/04 03:24:33;;;;;;;74.93;27.33;;;;;;;2.46;97.55;97896.34;4931549;28;20047;-84
2020/12/04 03:27:42;;;;;;;65.15;28.55;;;;;;;2.66;97.47;97889.13;4944160;28;20051;-84
2020/12/04 03:30:48;;;;;;;83.53;28.03;;;;;;;2.45;97.48;97889.44;4932771;28;20075;-83
2020/12/04 03:33:54;;;;;;;73.10;27.53;;;;;;;2.17;98.45;97900.97;4932428;28;20054;-84
2020/12/04 03:37:02;;;;;;;70.90;27.37;;;;;;;2.38;97.98;97895.44;4943448;28;20055;-83
2020/12/04 03:40:07;;;;;;;65.40;26.00;;;;;;;2.22;98.72;97903.16;4932576;28;20486;-83
2020/12/04 03:43:14;;;;;;;74.60;27.70;;;;;;;2.29;99.00;97901.59;4943430;28;20050;-84
2020/12/04 03:46:22;;;;;;;53.93;23.73;;;;;;;2.45;98.50;97888.59;4943226;28;20065;-83
2020/12/04 03:49:30;;;;;;;63.97;25.17;;;;;;;2.66;98.17;97889.13;4943163;28;20051;-83
2020/12/04 03:52:38;;;;;;;69.93;26.07;;;;;;;2.66;97.34;97898.81;4932301;28;20061;-83
2020/12/04 03:55:44;;;;;;;62.97;26.17;;;;;;;2.67;97.46;97880.25;4943353;28;20058;-84
2020/12/04 03:58:51;;;;;;;63.67;24.30;;;;;;;2.86;97.27;97879.25;4932411;28;20533;-83
2020/12/04 04:01:56;;;;;;;61.37;24.67;;;;;;;2.93;96.53;97890.00;4932085;28;20061;-83
2020/12/04 04:05:02;;;;;;;75.20;26.10;;;;;;;3.12;96.72;97884.53;4931617;28;20058;-83
2020/12/04 04:08:06;;;;;;;72.97;27.17;;;;;;;3.20;94.79;97881.94;4931466;28;20051;-83
2020/12/04 04:11:12;;;;;;;80.80;27.07;;;;;;;3.20;94.91;97887.22;4909267;28;20059;-84
2020/12/04 04:14:18;;;;;;;56.87;23.90;;;;;;;3.79;97.75;97893.47;4942837;28;20544;-84
2020/12/04 04:17:23;;;;;;;55.97;24.37;;;;;;;4.03;91.69;97884.81;4942659;28;20070;-84
2020/12/04 04:20:31;;;;;;;64.67;25.83;;;;;;;3.63;92.39;97879.25;4933214;28;20054;-84
2020/12/04 04:23:37;;;;;;;60.23;25.00;;;;;;;3.65;93.33;97878.28;4934708;28;20062;-84
2020/12/04 04:26:43;;;;;;;62.20;25.73;;;;;;;3.53;93.73;97862.72;4936665;29;20043;-84
2020/12/04 04:29:48;;;;;;;57.33;24.33;;;;;;;3.47;93.85;97858.06;4920554;29;20058;-84
2020/12/04 04:32:55;;;;;;;61.23;25.83;;;;;;;3.49;94.01;97871.94;4935115;28;20058;-83
2020/12/04 04:36:00;;;;;;;56.20;24.63;;;;;;;3.60;95.03;97866.38;4947073;28;20051;-85
2020/12/04 04:39:06;;;;;;;53.60;23.73;;;;;;;3.36;94.82;97874.16;4935025;28;20046;-83
2020/12/04 04:42:11;;;;;;;50.87;22.03;;;;;;;3.09;94.52;97863.78;4934645;28;20413;-84
2020/12/04 04:45:20;;;;;;;58.10;23.63;;;;;;;3.46;95.70;97853.78;4935048;28;20066;-83
2020/12/04 04:48:29;;;;;;;44.63;21.57;;;;;;;3.53;94.51;97856.63;4935061;28;20057;-83
2020/12/04 04:51:40;;;;;;;47.87;21.33;;;;;;;3.56;94.38;97846.59;4946786;28;20489;-84
2020/12/04 04:54:48;;;;;;;42.67;20.33;;;;;;;3.54;94.79;97822.19;4934918;28;20393;-83
2020/12/04 04:57:54;;;;;;;39.57;18.97;;;;;;;3.47;94.11;97826.47;4934803;28;20058;-84
2020/12/04 05:00:59;;;;;;;46.47;20.63;;;;;;;3.59;94.41;97835.72;4934872;28;20055;-83
2020/12/04 05:04:06;;;;;;;46.37;19.77;;;;;;;2.95;93.38;97849.34;4934977;28;20447;-83
2020/12/04 05:07:12;;;;;;;46.57;20.53;;;;;;;3.18;94.75;97847.06;4946874;28;20049;-83
2020/12/04 05:10:20;;;;;;;52.87;22.30;;;;;;;3.33;93.76;97829.69;4934780;28;20054;-83
2020/12/04 05:13:25;;;;;;;50.33;19.77;;;;;;;3.27;93.84;97830.31;4922538;28;20059;-84
2020/12/04 05:16:32;;;;;;;47.77;20.37;;;;;;;4.03;92.83;97825.00;4946845;28;20046;-85
2020/12/04 05:19:42;;;;;;;53.37;22.77;;;;;;;4.04;92.85;97813.47;4938022;28;20055;-85
2020/12/04 05:22:58;;;;;;;49.13;21.53;;;;;;;3.95;91.42;97811.78;4934166;28;20043;-85
2020/12/04 05:26:06;;;;;;;52.40;22.13;;;;;;;3.91;92.17;97815.72;4934353;28;20077;-84
2020/12/04 05:29:16;;;;;;;53.57;23.10;;;;;;;3.84;92.05;97788.38;4933245;28;20073;-85
2020/12/04 05:32:23;;;;;;;65.27;24.43;;;;;;;3.80;92.11;97774.69;4932404;28;20054;-85
2020/12/04 05:35:31;;;;;;;58.43;23.47;;;;;;;3.67;92.95;97762.94;4945332;28;20058;-84
2020/12/04 05:38:37;;;;;;;47.87;21.33;;;;;;;3.65;91.90;97772.84;4945293;28;20502;-85
2020/12/04 05:41:53;;;;;;;58.83;22.93;;;;;;;3.60;92.81;97768.88;4933689;28;20414;-84
2020/12/04 05:44:58;;;;;;;52.80;21.57;;;;;;;3.48;92.82;97772.78;4922382;28;20054;-84
2020/12/04 05:48:14;;;;;;;66.73;24.20;;;;;;;3.71;94.42;97785.38;4933439;28;20062;-84
2020/12/04 05:51:27;;;;;;;64.20;22.87;;;;;;;3.55;93.75;97765.88;4934060;28;20058;-84
2020/12/04 05:54:38;;;;;;;79.73;22.20;;;;;;;3.39;93.90;97763.22;4937487;28;20069;-84
2020/12/04 05:57:57;;;;;;;84.10;21.97;;;;;;;3.43;94.45;97756.63;4950108;28;20043;-84
2020/12/04 06:01:06;;;;;;;71.15;21.88;;;;;;;3.53;95.87;97764.41;4934076;28;20059;-84
2020/12/04 06:04:18;;;;;;;88.43;21.53;;;;;;;3.49;95.78;97760.44;4945285;28;20397;-84
2020/12/04 06:07:27;;;;;;;64.93;22.20;;;;;;;3.47;95.82;97760.59;4936509;29;20417;-84
2020/12/04 06:10:36;;;;;;;79.80;22.17;;;;;;;3.66;98.00;97761.31;4931305;29;20509;-84
2020/12/04 06:13:44;;;;;;;89.23;20.93;;;;;;;4.30;94.85;97748.22;4903660;29;20055;-85
2020/12/04 06:17:03;;;;;;;60.53;20.83;;;;;;;4.01;94.13;97745.25;4925479;29;20062;-84
2020/12/04 06:20:21;;;;;;;57.57;20.60;;;;;;;3.83;92.82;97726.09;4934942;28;20406;-84
2020/12/04 06:23:29;;;;;;;63.23;20.47;;;;;;;3.77;93.90;97713.56;4953243;29;20498;-83
2020/12/04 06:26:49;;;;;;;70.20;23.20;;;;;;;3.80;94.46;97724.59;4930698;29;20483;-83
2020/12/04 06:29:57;;;;;;;57.20;21.80;;;;;;;3.81;94.45;97728.88;4936942;28;20597;-84
2020/12/04 06:33:04;;;;;;;59.03;22.23;;;;;;;3.81;94.19;97728.06;4936088;29;20055;-83
2020/12/04 06:36:31;;;;;;;47.33;18.97;;;;;;;3.87;94.31;97722.97;4905377;28;20047;-84
2020/12/04 06:39:38;;;;;;;39.00;16.50;;;;;;;3.84;94.75;97722.47;4902876;29;20125;-83
2020/12/04 06:42:45;;;;;;;39.93;16.67;;;;;;;3.86;94.22;97726.59;4926018;29;20059;-84
2020/12/04 06:45:53;;;;;;;36.67;16.07;;;;;;;3.87;94.19;97719.50;4945744;28;20050;-83
2020/12/04 06:49:10;;;;;;;37.77;17.67;;;;;;;3.84;94.27;97709.28;4934329;28;20415;-83
2020/12/04 06:52:21;;;;;;;42.90;18.57;;;;;;;3.70;93.42;97715.19;4930002;29;20046;-83
2020/12/04 06:55:28;;;;;;;43.83;18.43;;;;;;;3.69;93.91;97710.91;4902995;29;20573;-83
2020/12/04 06:58:45;;;;;;;52.03;20.30;;;;;;;3.71;93.55;97711.56;4923309;29;20048;-83
2020/12/04 07:01:52;;;;;;;42.53;18.90;;;;;;;3.70;94.13;97715.19;4925751;29;20047;-83
2020/12/04 07:05:02;;;;;;;50.80;21.50;;;;;;;3.69;93.67;97697.72;4908189;28;20406;-83
2020/12/04 07:08:13;;;;;;;49.03;20.83;;;;;;;3.94;96.10;97702.88;4922488;28;20039;-84
2020/12/04 07:11:21;;;;;;;43.53;20.00;;;;;;;4.35;93.15;97700.22;4932233;28;20051;-84
2020/12/04 07:14:30;;;;;;;39.70;18.27;;;;;;;4.23;91.49;97699.75;4938145;28;20035;-83
2020/12/04 07:17:39;;;;;;;40.50;18.93;;;;;;;4.24;91.04;97698.75;4933270;28;20047;-84
2020/12/04 07:20:47;;;;;;;38.33;18.43;;;;;;;4.18;91.39;97694.13;4932675;28;20081;-83
2020/12/04 07:23:55;;;;;;;39.13;17.97;;;;;;;4.11;90.83;97695.78;4932291;28;20062;-84
2020/12/04 07:27:03;;;;;;;38.10;19.00;;;;;;;3.95;90.16;97709.78;4932342;28;20054;-83
2020/12/04 07:30:17;;;;;;;35.63;17.00;;;;;;;4.04;91.01;97717.69;4938121;28;20050;-84
2020/12/04 07:33:25;;;;;;;38.57;17.83;;;;;;;4.03;90.86;97716.88;4934392;28;20475;-84
2020/12/04 07:36:35;;;;;;;40.97;18.87;;;;;;;4.14;91.34;97711.25;4932651;28;20716;-83
2020/12/04 07:39:45;;;;;;;40.93;18.67;;;;;;;4.05;91.08;97712.25;4943932;28;20055;-83
2020/12/04 07:42:56;;;;;;;43.93;19.63;;;;;;;3.96;90.68;97705.34;4932441;28;20494;-83
2020/12/04 07:56:20;;;;;;;42.03;18.33;;;;;;;4.11;92.71;97672.06;4958105;28;20047;-83
2020/12/04 08:04:35;;;;;;;37.00;17.97;;;;;;;4.57;91.98;97664.41;4954109;28;20058;-84
2020/12/04 08:27:53;;;;;;;54.60;20.83;;;;;;;4.18;93.19;97666.94;4927247;29;20961;-83
2020/12/04 08:32:59;;;;;;;51.50;20.07;;;;;;;4.56;94.52;97670.66;4953557;29;20055;-83
2020/12/04 08:41:26;;;;;;;38.60;18.03;;;;;;;4.76;92.62;97645.53;4943301;29;20286;-83
2020/12/04 08:45:47;;;;;;;44.37;19.80;;;;;;;4.72;92.29;97629.19;4937315;29;20047;-83
2020/12/04 08:50:04;;;;;;;44.47;19.30;;;;;;;4.46;91.53;97643.66;4927458;29;20043;-83
2020/12/04 08:54:09;;;;;;;53.40;22.70;;;;;;;4.56;92.38;97623.16;4939412;29;20051;-83
2020/12/04 08:58:02;;;;;;;58.70;23.93;;;;;;;4.79;93.34;97631.16;4936664;29;20039;-83
2020/12/04 09:02:37;;;;;;;62.07;24.30;;;;;;;4.87;91.11;97621.38;4924295;29;20054;-84
2020/12/04 09:22:18;;;;;;;56.10;25.80;;;;;;;5.37;89.72;97618.31;4953412;28;20043;-84
2020/12/04 09:26:21;;;;;;;65.53;27.67;;;;;;;5.41;88.97;97603.75;4967462;28;20070;-83
2020/12/04 09:30:12;;;;;;;68.97;28.10;;;;;;;5.31;88.78;97612.91;4936142;28;20042;-84
2020/12/04 09:34:53;;;;;;;68.20;27.93;;;;;;;5.28;90.80;97613.25;4951699;28;20042;-84
2020/12/04 09:45:04;;;;;;;76.57;32.23;;;;;;;5.26;91.63;97604.69;4974973;28;20497;-84
2020/12/04 09:49:11;;;;;;;84.47;34.43;;;;;;;5.17;92.19;97605.72;4960721;28;20090;-84
2020/12/04 09:52:36;;;;;;;70.73;28.50;;;;;;;5.27;91.53;97607.16;4936192;28;20576;-85
2020/12/04 10:05:50;;;;;;;;;;;;;;;4.99;93.05;97604.16;4970782;28;20517;-84
2020/12/04 10:11:26;;;;;;;75.53;31.73;;;;;;;4.98;94.37;97607.78;4874288;29;19919;-83
2020/12/04 10:15:19;;;;;;;108.23;38.10;;;;;;;5.01;94.75;97599.53;4894060;29;20052;-84
2020/12/04 10:24:19;;;;;;;121.53;43.20;;;;;;;4.83;95.27;97530.31;4894554;29;20072;-84
2020/12/04 10:33:08;;;;;;;163.17;48.03;;;;;;;5.16;94.70;97504.53;4888835;29;20056;-84
2020/12/04 10:38:18;;;;;;;117.20;38.25;;;;;;;4.91;96.10;97501.22;4889761;29;20057;-84
2020/12/04 10:42:36;;;;;;;142.43;48.23;;;;;;;4.97;95.21;97491.75;4888475;29;20060;-83
2020/12/04 10:46:32;;;;;;;137.87;48.70;;;;;;;4.77;96.99;97494.03;4886516;29;20056;-83
2020/12/04 10:50:56;;;;;;;152.33;50.03;;;;;;;4.75;97.65;97492.56;4911551;29;20051;-83
2020/12/04 10:55:14;;;;;;;144.77;51.10;;;;;;;4.94;95.70;97473.66;4932981;29;20400;-83
2020/12/04 10:58:55;;;;;;;150.57;51.17;;;;;;;5.03;95.54;97486.63;4924634;29;20050;-83
2020/12/04 11:22:58;;;;;;;90.60;41.67;;;;;;;5.03;99.23;97444.34;4972826;28;20058;-83
2020/12/04 11:26:12;;;;;;;83.07;39.38;;;;;;;5.09;98.89;97435.69;4939164;28;20058;-82
2020/12/04 11:29:26;;;;;;;93.70;40.00;;;;;;;5.16;98.77;97435.84;4910771;28;20057;-82
2020/12/04 11:32:37;;;;;;;70.83;35.23;;;;;;;5.26;98.83;97432.94;4934052;28;20058;-82
2020/12/04 11:35:44;;;;;;;67.33;34.20;;;;;;;5.32;98.20;97437.50;4933861;28;20050;-83
2020/12/04 11:38:51;;;;;;;69.27;34.60;;;;;;;5.52;97.79;97432.53;4929232;28;20059;-82
2020/12/04 11:41:57;;;;;;;64.43;31.37;;;;;;;5.60;96.71;97424.50;4947942;28;20505;-83
2020/12/04 11:45:05;;;;;;;64.43;31.50;;;;;;;5.65;95.86;97399.19;4935009;28;20490;-83
2020/12/04 11:48:11;;;;;;;58.97;32.03;;;;;;;5.58;96.32;97406.19;4938127;28;20050;-83
2020/12/04 11:51:18;;;;;;;57.43;29.00;;;;;;;5.53;96.19;97402.47;4915499;28;20062;-83
2020/12/04 11:54:24;;;;;;;61.60;32.70;;;;;;;5.41;96.48;97381.75;4931496;28;20043;-83
2020/12/04 11:57:30;;;;;;;68.37;33.90;;;;;;;5.58;95.80;97387.69;4937467;28;20051;-82
2020/12/04 12:00:40;;;;;;;61.93;30.60;;;;;;;5.50;95.84;97381.66;4919630;28;20053;-82
2020/12/04 12:03:49;;;;;;;67.33;34.93;;;;;;;5.59;96.41;97378.75;4943901;28;20047;-84
2020/12/04 12:06:55;;;;;;;63.70;32.77;;;;;;;5.55;96.75;97376.63;4946792;28;20508;-83
2020/12/04 12:10:04;;;;;;;52.57;29.67;;;;;;;5.56;95.28;97351.84;4948884;28;20054;-84
2020/12/04 12:13:14;;;;;;;60.40;32.07;;;;;;;5.64;95.97;97349.13;4949905;28;20051;-83
2020/12/04 12:16:23;;;;;;;63.87;33.00;;;;;;;5.75;94.25;97325.69;4910916;28;20039;-83
2020/12/04 12:19:34;;;;;;;62.73;32.80;;;;;;;5.64;95.41;97341.19;4909531;28;20478;-82
2020/12/04 12:22:48;;;;;;;77.57;37.60;;;;;;;5.66;95.25;97347.94;4934576;28;20517;-83
2020/12/04 12:25:59;;;;;;;70.73;35.57;;;;;;;5.67;95.59;97332.88;4933803;28;20051;-83
2020/12/04 12:29:07;;;;;;;64.87;33.80;;;;;;;5.70;95.72;97330.69;4926491;28;20051;-83
2020/12/04 12:32:37;;;;;;;57.87;32.60;;;;;;;5.68;96.40;97335.34;4925583;28;20414;-82
2020/12/04 12:35:48;;;;;;;72.03;35.80;;;;;;;5.57;96.67;97338.44;4960749;28;20056;-82
2020/12/04 12:38:57;;;;;;;62.87;33.93;;;;;;;5.77;97.17;97344.84;4937283;28;20405;-82
2020/12/04 12:42:48;;;;;;;86.83;40.93;;;;;;;5.64;97.38;97334.09;4955405;28;20058;-82
2020/12/04 12:45:56;;;;;;;59.50;35.63;;;;;;;5.77;96.54;97336.91;4952114;28;20081;-83
2020/12/04 12:49:03;;;;;;;71.63;37.00;;;;;;;5.81;96.51;97329.41;4939913;28;20046;-84
2020/12/04 12:52:16;;;;;;;49.33;28.67;;;;;;;5.88;96.16;97338.28;4940147;28;20054;-84
2020/12/04 12:55:23;;;;;;;50.37;27.60;;;;;;;5.81;95.78;97339.97;4947509;28;20410;-83
2020/12/04 12:58:34;;;;;;;48.63;26.88;;;;;;;5.64;95.80;97323.50;4935771;28;20057;-84
2020/12/04 13:01:51;;;;;;;47.50;27.27;;;;;;;6.19;97.28;97326.63;4942238;28;20406;-84
2020/12/04 13:04:59;;;;;;;51.83;25.60;;;;;;;6.30;94.95;97326.13;4940644;28;20055;-84
2020/12/04 13:08:11;;;;;;;47.07;23.53;;;;;;;5.97;94.21;97328.41;4940354;28;20047;-83
2020/12/04 13:11:26;;;;;;;38.30;22.03;;;;;;;5.66;94.38;97320.69;4940504;28;20043;-83
2020/12/04 13:14:34;;;;;;;38.47;21.53;;;;;;;5.64;94.19;97333.28;4943629;28;20050;-83
2020/12/04 13:17:46;;;;;;;38.80;23.23;;;;;;;5.58;95.00;97326.88;4940722;28;20421;-83
2020/12/04 13:20:56;;;;;;;40.47;24.23;;;;;;;5.43;95.17;97331.34;4938090;28;20059;-83
2020/12/04 13:24:04;;;;;;;41.57;25.17;;;;;;;5.46;95.81;97333.63;4940445;28;20059;-83
2020/12/04 13:27:14;;;;;;;45.23;25.77;;;;;;;5.19;96.93;97329.00;4940802;28;20418;-84
2020/12/04 13:30:26;;;;;;;;;;;;;;;5.23;96.96;97328.44;4935856;28;20047;-85
2020/12/04 13:33:35;;;;;;;35.23;21.40;;;;;;;5.09;98.34;97319.47;4934787;28;19929;-83
2020/12/04 13:36:46;;;;;;;40.93;24.07;;;;;;;5.20;98.27;97314.75;4937048;28;20063;-83
2020/12/04 13:39:57;;;;;;;36.90;22.97;;;;;;;5.22;98.55;97324.13;4933907;28;20047;-83
2020/12/04 13:43:13;;;;;;;43.00;25.33;;;;;;;5.12;99.01;97313.03;4939308;28;20058;-83
2020/12/04 13:46:23;;;;;;;29.60;18.27;;;;;;;5.12;99.30;97315.66;4938999;28;20394;-83
2020/12/04 13:49:33;;;;;;;33.20;20.50;;;;;;;5.31;98.69;97311.69;4939382;28;20042;-83
2020/12/04 13:52:38;;;;;;;35.03;19.87;;;;;;;5.22;99.52;97305.66;4937767;28;20047;-83
2020/12/04 13:55:45;;;;;;;38.10;22.20;;;;;;;5.33;100.00;97302.53;4927743;28;20066;-83
2020/12/04 13:58:50;;;;;;;36.90;19.53;;;;;;;5.65;100.00;97301.38;4939152;28;20058;-83
2020/12/04 14:01:57;;;;;;;29.67;18.83;;;;;;;5.98;100.00;97288.56;4936921;28;20043;-84
2020/12/04 14:05:03;;;;;;;26.83;16.43;;;;;;;5.82;100.00;97289.56;4939339;28;20066;-84
2020/12/04 14:08:08;;;;;;;34.17;19.97;;;;;;;5.76;100.00;97287.66;4938474;28;20503;-84
2020/12/04 14:11:18;;;;;;;27.13;17.73;;;;;;;5.79;100.00;97297.84;4933648;28;20379;-84
2020/12/04 14:14:26;;;;;;;25.08;16.50;;;;;;;5.92;99.83;97299.03;4927022;28;20055;-84
2020/12/04 14:17:33;;;;;;;27.97;16.47;;;;;;;6.12;100.00;97292.16;4944900;28;20406;-85
2020/12/04 14:20:41;;;;;;;21.77;12.23;;;;;;;5.98;99.43;97290.38;4938601;28;20077;-85
2020/12/04 14:23:46;;;;;;;20.83;11.87;;;;;;;6.03;99.55;97295.91;4933187;28;20414;-85
2020/12/04 14:26:56;;;;;;;23.17;13.87;;;;;;;5.88;99.02;97303.06;4932703;28;20047;-85
2020/12/04 14:30:02;;;;;;;27.07;15.27;;;;;;;5.87;98.37;97296.13;4944998;28;20474;-85
2020/12/04 14:33:08;;;;;;;36.27;19.30;;;;;;;5.82;98.21;97289.56;4910846;28;20050;-86
2020/12/04 14:36:17;;;;;;;51.77;22.40;;;;;;;5.63;97.35;97292.78;4922400;28;20472;-86
2020/12/04 14:39:24;;;;;;;34.67;20.03;;;;;;;5.59;97.33;97288.03;4932785;28;20047;-85
2020/12/04 14:42:32;;;;;;;31.17;18.37;;;;;;;5.54;98.29;97295.72;4932041;28;20055;-86
2020/12/04 14:45:37;;;;;;;35.27;19.63;;;;;;;5.44;97.79;97295.97;4937579;28;20496;-85
2020/12/04 14:48:43;;;;;;;41.27;20.80;;;;;;;5.50;99.05;97289.97;4932580;28;20050;-85
2020/12/04 14:51:49;;;;;;;44.30;20.30;;;;;;;5.50;98.33;97286.50;4932712;28;20414;-86
2020/12/04 14:54:53;;;;;;;25.47;14.97;;;;;;;5.68;99.10;97276.34;4944863;28;20050;-84
2020/12/04 14:57:59;;;;;;;28.63;17.53;;;;;;;5.52;97.25;97282.69;4932482;28;20058;-84
2020/12/04 15:01:04;;;;;;;26.00;14.67;;;;;;;5.45;97.70;97285.22;4921343;28;20058;-85
2020/12/04 15:04:11;;;;;;;22.70;13.40;;;;;;;5.35;97.97;97286.50;4937868;28;20050;-84
2020/12/04 15:07:19;;;;;;;23.00;13.13;;;;;;;5.46;98.84;97288.69;4909946;28;20047;-84
2020/12/04 15:10:25;;;;;;;20.80;12.60;;;;;;;5.35;97.27;97281.22;4932651;28;20053;-84
2020/12/04 15:13:32;;;;;;;21.87;11.43;;;;;;;5.23;97.78;97282.69;4932761;28;20043;-85
2020/12/04 15:16:39;;;;;;;20.23;11.83;;;;;;;5.16;98.15;97276.50;4943644;28;20043;-85
2020/12/04 15:19:46;;;;;;;17.60;10.87;;;;;;;5.16;97.46;97261.47;4955662;28;20481;-86
2020/12/04 15:22:52;;;;;;;14.97;10.07;;;;;;;5.05;98.48;97264.56;4932344;28;20061;-85
2020/12/04 15:26:00;;;;;;;16.33;10.53;;;;;;;5.13;99.01;97261.00;4932047;28;20081;-85
2020/12/04 15:29:06;;;;;;;16.70;10.70;;;;;;;5.21;98.33;97247.69;4910248;28;20043;-86
2020/12/04 15:32:15;;;;;;;12.57;8.97;;;;;;;5.17;97.81;97212.94;4932274;28;20387;-86
2020/12/04 15:35:22;;;;;;;10.67;7.43;;;;;;;5.13;98.17;97230.13;4938229;28;20065;-85
2020/12/04 15:38:29;;;;;;;10.10;6.43;;;;;;;5.18;96.60;97219.03;4944857;28;20043;-85
2020/12/04 15:41:36;;;;;;;12.63;7.33;;;;;;;5.09;97.93;97219.09;4943857;28;20584;-86
2020/12/04 15:44:44;;;;;;;12.03;7.07;;;;;;;5.30;100.00;97199.06;4932642;28;20053;-85
2020/12/04 15:47:50;;;;;;;11.30;7.73;;;;;;;5.47;99.26;97220.78;4932263;28;20034;-85
2020/12/04 15:50:57;;;;;;;8.37;6.13;;;;;;;5.13;97.14;97193.16;4932447;28;20062;-85
2020/12/04 15:54:02;;;;;;;11.17;6.77;;;;;;;5.22;98.73;97191.22;4932019;28;20057;-84
2020/12/04 15:57:09;;;;;;;8.77;6.27;;;;;;;5.25;97.41;97198.78;4948225;28;20038;-85
2020/12/04 16:00:17;;;;;;;8.37;6.23;;;;;;;5.30;97.35;97210.47;4944547;28;20054;-85
2020/12/04 16:03:26;;;;;;;10.70;7.00;;;;;;;5.23;97.56;97206.06;4932326;28;20061;-85
2020/12/04 16:06:36;;;;;;;10.83;7.00;;;;;;;5.24;98.12;97197.16;4932615;28;20046;-85
2020/12/04 16:09:44;;;;;;;9.20;6.32;;;;;;;5.31;98.07;97175.06;4944848;28;20054;-85
2020/12/04 16:12:51;;;;;;;8.33;6.30;;;;;;;5.30;97.87;97184.03;4943757;28;20047;-85
2020/12/04 16:15:58;;;;;;;12.67;6.30;;;;;;;5.34;97.65;97176.53;4932684;28;20043;-85
2020/12/04 16:19:04;;;;;;;9.60;5.60;;;;;;;5.24;97.87;97176.00;4947234;28;20507;-85
2020/12/04 16:22:12;;;;;;;9.17;6.20;;;;;;;5.32;97.87;97174.06;4941001;28;20050;-84
2020/12/04 16:25:19;;;;;;;8.47;5.97;;;;;;;5.31;98.44;97177.72;4934453;28;20372;-84
2020/12/04 16:28:27;;;;;;;7.63;5.63;;;;;;;5.34;97.59;97164.16;4947087;28;20073;-84
2020/12/04 16:31:35;;;;;;;7.03;5.23;;;;;;;5.29;97.59;97171.00;4935725;28;20055;-84
2020/12/04 16:34:39;;;;;;;7.00;5.47;;;;;;;5.28;98.31;97164.91;4934546;28;20054;-85
2020/12/04 16:37:52;;;;;;;8.53;6.03;;;;;;;5.42;99.61;97160.59;4940176;28;20038;-84
2020/12/04 16:41:04;;;;;;;8.33;5.73;;;;;;;5.50;98.31;97157.81;4947754;28;20039;-84
2020/12/04 16:44:18;;;;;;;7.60;5.33;;;;;;;5.58;98.88;97152.41;4947505;28;20050;-84
2020/12/04 16:47:25;;;;;;;8.97;6.00;;;;;;;5.60;98.31;97160.16;4935120;28;20407;-83